Time;durP1;ratioP1;P1;durP2;ratioP2;P2;SDS_P1;SDS_P2;PMS_P1;PMS_P2;Temp;Humidity;BMP_temperature;BMP_pressure;BME280_temperature;BME280_humidity;BME280_pressure;Samples;Min_cycle;Max_cycle;Signal;HPM_P1;HPM_P2
2023/09/23 00:01:08;;;;;;;2.60;2.40;;;;;;;;;;5075800;28;20674;-60
2023/09/23 00:03:36;;;;;;;4.73;2.40;;;;;;;;;;5075709;28;20440;-60
2023/09/23 00:06:03;;;;;;;2.23;2.00;;;;;;;;;;5075547;28;20879;-60
2023/09/23 00:08:30;;;;;;;4.60;2.80;;;;;;;;;;5075667;28;20443;-60
2023/09/23 00:10:57;;;;;;;2.33;2.13;;;;;;;;;;5075599;28;20443;-60
2023/09/23 00:13:25;;;;;;;3.33;2.60;;;;;;;;;;5075541;28;20538;-60
2023/09/23 00:15:55;;;;;;;2.20;2.10;;;;;;;;;;5075492;28;20497;-60
2023/09/23 00:18:23;;;;;;;2.80;2.60;;;;;;;;;;5075419;28;20448;-60
2023/09/23 00:20:50;;;;;;;3.80;2.20;;;;;;;;;;5075228;28;20542;-61
2023/09/23 00:23:17;;;;;;;3.03;2.20;;;;;;;;;;5075472;28;20871;-60
2023/09/23 00:25:49;;;;;;;2.37;2.20;;;;;;;;;;5075304;28;20449;-61
2023/09/23 00:28:15;;;;;;;2.60;2.40;;;;;;;;;;5075282;28;20463;-61
2023/09/23 00:30:45;;;;;;;2.50;2.40;;;;;;;;;;5075102;28;20816;-60
2023/09/23 00:33:16;;;;;;;2.37;2.17;;;;;;;;;;5075050;28;20451;-61
2023/09/23 00:35:44;;;;;;;2.20;2.10;;;;;;;;;;5075275;28;20447;-60
2023/09/23 00:38:12;;;;;;;2.37;2.20;;;;;;;;;;5074405;28;20475;-61
2023/09/23 00:40:39;;;;;;;2.93;2.00;;;;;;;;;;5074932;28;20447;-60
2023/09/23 00:43:11;;;;;;;2.57;2.37;;;;;;;;;;5074834;28;20448;-60
2023/09/23 00:45:38;;;;;;;2.07;1.77;;;;;;;;;;5075290;28;20443;-60
2023/09/23 00:48:08;;;;;;;2.37;2.27;;;;;;;;;;5074664;28;20483;-60
2023/09/23 00:50:36;;;;;;;2.27;2.07;;;;;;;;;;5074784;28;20487;-61
2023/09/23 00:53:05;;;;;;;6.00;2.50;;;;;;;;;;5074651;28;20526;-60
2023/09/23 00:55:39;;;;;;;2.40;2.20;;;;;;;;;;5074686;28;20448;-61
2023/09/23 00:58:07;;;;;;;2.60;2.40;;;;;;;;;;5074549;28;20443;-60
2023/09/23 01:00:35;;;;;;;3.50;2.50;;;;;;;;;;5074428;28;20479;-60
2023/09/23 01:03:02;;;;;;;2.67;2.10;;;;;;;;;;5074604;28;20443;-61
2023/09/23 01:05:30;;;;;;;2.37;2.17;;;;;;;;;;5074469;28;20455;-60
2023/09/23 01:08:11;;;;;;;2.20;2.00;;;;;;;;;;5074387;28;20443;-60
2023/09/23 01:10:38;;;;;;;2.50;2.30;;;;;;;;;;5074198;28;20479;-60
2023/09/23 01:13:14;;;;;;;2.20;2.03;;;;;;;;;;5074179;28;20451;-60
2023/09/23 01:15:41;;;;;;;2.37;2.17;;;;;;;;;;5074368;28;20435;-60
2023/09/23 01:18:08;;;;;;;2.10;1.90;;;;;;;;;;5074005;28;20526;-60
2023/09/23 01:20:37;;;;;;;2.00;1.90;;;;;;;;;;5074115;28;20528;-60
2023/09/23 01:23:05;;;;;;;2.20;1.90;;;;;;;;;;5074124;28;20440;-60
2023/09/23 01:25:35;;;;;;;3.03;2.00;;;;;;;;;;5073935;28;20443;-60
2023/09/23 01:28:04;;;;;;;2.20;1.90;;;;;;;;;;5074116;28;20450;-60
2023/09/23 01:30:30;;;;;;;1.97;1.87;;;;;;;;;;5073992;28;20889;-60
2023/09/23 01:32:57;;;;;;;3.23;2.07;;;;;;;;;;5073914;28;20538;-61
2023/09/23 01:35:24;;;;;;;3.50;1.97;;;;;;;;;;5073817;28;20451;-60
2023/09/23 01:37:51;;;;;;;2.07;1.97;;;;;;;;;;5073509;28;20884;-60
2023/09/23 01:40:19;;;;;;;2.27;2.00;;;;;;;;;;5073908;28;20691;-60
2023/09/23 01:42:48;;;;;;;2.13;2.03;;;;;;;;;;5073770;28;20454;-60
2023/09/23 01:45:16;;;;;;;2.40;2.23;;;;;;;;;;5073762;28;20447;-60
2023/09/23 01:47:44;;;;;;;1.97;1.87;;;;;;;;;;5073662;28;20443;-60
2023/09/23 01:50:11;;;;;;;2.40;2.20;;;;;;;;;;5072682;28;20525;-60
2023/09/23 01:52:40;;;;;;;2.40;2.20;;;;;;;;;;5073387;28;20455;-61
2023/09/23 01:55:11;;;;;;;2.23;2.13;;;;;;;;;;5073350;28;20954;-61
2023/09/23 01:57:40;;;;;;;2.20;2.10;;;;;;;;;;5073637;28;20526;-60
2023/09/23 02:00:08;;;;;;;2.70;2.50;;;;;;;;;;5073426;28;20452;-60
2023/09/23 02:02:34;;;;;;;1.80;1.70;;;;;;;;;;5073310;28;20938;-60
2023/09/23 02:05:02;;;;;;;1.90;1.80;;;;;;;;;;5073235;28;20449;-60
2023/09/23 02:07:29;;;;;;;2.90;2.70;;;;;;;;;;5073441;28;20448;-60
2023/09/23 02:09:56;;;;;;;2.33;2.23;;;;;;;;;;5073284;28;20823;-60
2023/09/23 02:12:23;;;;;;;2.10;2.00;;;;;;;;;;5073295;28;20486;-60
2023/09/23 02:14:53;;;;;;;2.40;2.20;;;;;;;;;;5073208;28;20443;-60
2023/09/23 02:17:20;;;;;;;3.40;2.03;;;;;;;;;;5073303;28;20447;-60
2023/09/23 02:19:47;;;;;;;1.80;1.70;;;;;;;;;;5073330;28;20470;-60
2023/09/23 02:22:16;;;;;;;2.00;1.90;;;;;;;;;;5073207;28;20443;-60
2023/09/23 02:24:43;;;;;;;2.50;2.40;;;;;;;;;;5073101;28;20949;-60
2023/09/23 02:27:10;;;;;;;2.63;2.43;;;;;;;;;;5073125;28;20531;-60
2023/09/23 02:29:36;;;;;;;3.00;2.40;;;;;;;;;;5072967;28;20484;-60
2023/09/23 02:32:06;;;;;;;4.80;2.13;;;;;;;;;;5072985;28;20530;-60
2023/09/23 02:34:34;;;;;;;2.00;1.90;;;;;;;;;;5073141;28;20821;-61
2023/09/23 02:37:01;;;;;;;2.90;1.57;;;;;;;;;;5072722;28;20471;-60
2023/09/23 02:39:28;;;;;;;4.70;2.30;;;;;;;;;;5072890;28;21004;-60
2023/09/23 02:41:54;;;;;;;3.93;2.10;;;;;;;;;;5072882;28;20478;-60
2023/09/23 02:44:23;;;;;;;2.10;2.00;;;;;;;;;;5072877;28;20482;-60
2023/09/23 02:46:53;;;;;;;1.90;1.80;;;;;;;;;;5073061;28;20452;-60
2023/09/23 02:49:21;;;;;;;2.60;2.50;;;;;;;;;;5072918;28;20451;-60
2023/09/23 02:51:49;;;;;;;2.20;2.10;;;;;;;;;;5073009;28;20443;-60
2023/09/23 02:54:17;;;;;;;1.80;1.70;;;;;;;;;;5072851;28;20448;-60
2023/09/23 02:56:46;;;;;;;2.40;2.00;;;;;;;;;;5072726;28;20444;-60
2023/09/23 02:59:13;;;;;;;4.90;2.17;;;;;;;;;;5072629;28;20926;-60
2023/09/23 03:01:45;;;;;;;2.37;2.17;;;;;;;;;;5075900;28;20443;-60
2023/09/23 03:04:17;;;;;;;2.47;2.27;;;;;;;;;;5076888;28;20447;-60
2023/09/23 03:06:49;;;;;;;1.80;1.70;;;;;;;;;;5076854;28;20455;-60
2023/09/23 03:09:16;;;;;;;2.53;2.17;;;;;;;;;;5076717;28;20471;-60
2023/09/23 03:11:49;;;;;;;2.00;1.90;;;;;;;;;;5076522;28;20447;-60
2023/09/23 03:14:18;;;;;;;1.97;1.73;;;;;;;;;;5076900;28;20443;-60
2023/09/23 03:16:49;;;;;;;1.87;1.77;;;;;;;;;;5076617;28;20447;-60
2023/09/23 03:19:22;;;;;;;2.33;1.70;;;;;;;;;;5076532;28;20440;-60
2023/09/23 03:21:51;;;;;;;2.30;1.40;;;;;;;;;;5076406;28;20562;-60
2023/09/23 03:24:19;;;;;;;4.20;1.70;;;;;;;;;;5076263;28;20942;-60
2023/09/23 03:26:46;;;;;;;1.70;1.60;;;;;;;;;;5076474;28;20709;-60
2023/09/23 03:29:15;;;;;;;1.80;1.67;;;;;;;;;;5076438;28;20439;-60
2023/09/23 03:31:42;;;;;;;3.10;1.37;;;;;;;;;;5076206;28;20479;-61
2023/09/23 03:34:12;;;;;;;2.10;1.70;;;;;;;;;;5076228;28;21010;-61
2023/09/23 03:36:40;;;;;;;1.27;1.17;;;;;;;;;;5075895;28;20642;-61
2023/09/23 03:39:09;;;;;;;1.53;1.43;;;;;;;;;;5076279;28;20519;-61
2023/09/23 03:41:36;;;;;;;1.80;1.70;;;;;;;;;;5076155;28;20447;-61
2023/09/23 03:44:03;;;;;;;1.83;1.73;;;;;;;;;;5076103;28;20505;-61
2023/09/23 03:46:30;;;;;;;2.77;1.40;;;;;;;;;;5075950;28;20454;-61
2023/09/23 03:48:57;;;;;;;1.63;1.53;;;;;;;;;;5075834;28;20446;-61
2023/09/23 03:51:25;;;;;;;3.33;2.27;;;;;;;;;;5075982;28;20872;-61
2023/09/23 03:53:52;;;;;;;1.50;1.40;;;;;;;;;;5075949;28;20450;-60
2023/09/23 03:56:22;;;;;;;2.70;1.30;;;;;;;;;;5075895;28;20470;-60
2023/09/23 03:58:49;;;;;;;1.67;1.50;;;;;;;;;;5075762;28;20475;-60
2023/09/23 04:01:16;;;;;;;1.50;1.40;;;;;;;;;;5075757;28;20993;-60
2023/09/23 04:03:43;;;;;;;1.30;1.20;;;;;;;;;;5075586;28;20448;-61
2023/09/23 04:06:11;;;;;;;1.93;1.20;;;;;;;;;;5075772;28;20887;-61
2023/09/23 04:08:38;;;;;;;1.93;1.40;;;;;;;;;;5075666;28;20505;-61
2023/09/23 04:11:07;;;;;;;1.93;1.37;;;;;;;;;;5075493;28;20573;-61
2023/09/23 04:13:35;;;;;;;1.40;1.30;;;;;;;;;;5074649;28;20448;-60
2023/09/23 04:16:02;;;;;;;1.63;1.20;;;;;;;;;;5075322;28;20450;-60
2023/09/23 04:18:29;;;;;;;3.40;1.23;;;;;;;;;;5075584;28;20873;-60
2023/09/23 04:20:56;;;;;;;1.30;1.20;;;;;;;;;;5075415;28;20444;-60
2023/09/23 04:23:23;;;;;;;1.07;0.97;;;;;;;;;;5075374;28;20447;-60
2023/09/23 04:25:51;;;;;;;1.90;1.17;;;;;;;;;;5075301;28;20443;-61
2023/09/23 04:28:18;;;;;;;1.50;1.17;;;;;;;;;;5075199;28;20440;-60
2023/09/23 04:30:46;;;;;;;3.37;1.10;;;;;;;;;;5075033;28;20792;-60
2023/09/23 04:33:13;;;;;;;1.43;1.20;;;;;;;;;;5075263;28;20470;-60
2023/09/23 04:35:40;;;;;;;1.00;0.90;;;;;;;;;;5075128;28;20442;-60
2023/09/23 04:38:07;;;;;;;1.97;1.10;;;;;;;;;;5074739;28;20468;-60
2023/09/23 04:40:34;;;;;;;2.00;1.20;;;;;;;;;;5075044;28;20497;-60
2023/09/23 04:43:04;;;;;;;2.10;1.20;;;;;;;;;;5074888;28;20447;-60
2023/09/23 04:45:31;;;;;;;1.00;0.90;;;;;;;;;;5074776;28;20435;-60
2023/09/23 04:48:00;;;;;;;3.73;1.67;;;;;;;;;;5074862;28;20446;-60
2023/09/23 04:50:28;;;;;;;2.17;1.27;;;;;;;;;;5074949;28;20529;-61
2023/09/23 04:52:55;;;;;;;1.50;1.30;;;;;;;;;;5074738;28;20544;-61
2023/09/23 04:55:22;;;;;;;1.33;1.23;;;;;;;;;;5074682;28;20445;-61
2023/09/23 04:57:49;;;;;;;1.10;1.00;;;;;;;;;;5074549;28;20534;-61
2023/09/23 05:00:18;;;;;;;1.13;1.03;;;;;;;;;;5074780;28;20447;-61
2023/09/23 05:02:49;;;;;;;1.30;1.20;;;;;;;;;;5074669;28;20443;-61
2023/09/23 05:05:18;;;;;;;1.47;1.37;;;;;;;;;;5074588;28;20458;-61
2023/09/23 05:07:45;;;;;;;1.20;0.90;;;;;;;;;;5074443;28;20846;-61
2023/09/23 05:10:13;;;;;;;1.73;1.23;;;;;;;;;;5074174;28;20442;-61
2023/09/23 05:12:41;;;;;;;3.23;1.00;;;;;;;;;;5074518;28;20773;-61
2023/09/23 05:15:09;;;;;;;1.10;1.00;;;;;;;;;;5074396;28;20447;-62
2023/09/23 05:17:37;;;;;;;1.67;1.23;;;;;;;;;;5074348;28;20439;-61
2023/09/23 05:20:11;;;;;;;1.47;1.03;;;;;;;;;;5074120;28;21008;-61
2023/09/23 05:22:40;;;;;;;4.87;1.00;;;;;;;;;;5074213;28;20443;-61
2023/09/23 05:25:07;;;;;;;1.20;1.07;;;;;;;;;;5074144;28;20946;-61
2023/09/23 05:27:34;;;;;;;0.87;0.87;;;;;;;;;;5074248;28;20451;-61
2023/09/23 05:30:01;;;;;;;2.13;1.23;;;;;;;;;;5073885;28;20923;-61
2023/09/23 05:32:28;;;;;;;1.10;1.00;;;;;;;;;;5073850;28;20498;-61
2023/09/23 05:35:00;;;;;;;1.53;1.20;;;;;;;;;;5073932;28;20447;-61
2023/09/23 05:37:27;;;;;;;1.30;0.97;;;;;;;;;;5073642;28;20468;-61
2023/09/23 05:39:55;;;;;;;1.30;1.17;;;;;;;;;;5073968;28;20452;-61
2023/09/23 05:42:24;;;;;;;1.80;1.00;;;;;;;;;;5073884;28;20538;-61
2023/09/23 05:44:51;;;;;;;1.40;0.93;;;;;;;;;;5073887;28;20961;-61
2023/09/23 05:47:18;;;;;;;1.23;1.10;;;;;;;;;;5073610;28;20989;-61
2023/09/23 05:49:44;;;;;;;1.00;0.90;;;;;;;;;;5073568;28;20443;-61
2023/09/23 05:52:14;;;;;;;1.10;1.00;;;;;;;;;;5073426;28;20479;-61
2023/09/23 05:54:41;;;;;;;1.53;1.00;;;;;;;;;;5073609;28;20475;-61
2023/09/23 05:57:09;;;;;;;1.30;1.00;;;;;;;;;;5073576;28;20534;-61
2023/09/23 05:59:36;;;;;;;2.30;1.00;;;;;;;;;;5073459;28;20542;-61
2023/09/23 06:02:08;;;;;;;1.50;0.87;;;;;;;;;;5073390;28;20747;-61
2023/09/23 06:04:35;;;;;;;1.23;1.13;;;;;;;;;;5073387;28;21010;-61
2023/09/23 06:07:02;;;;;;;1.37;1.03;;;;;;;;;;5073427;28;20450;-61
2023/09/23 06:09:29;;;;;;;1.10;1.00;;;;;;;;;;5073416;28;20534;-61
2023/09/23 06:11:56;;;;;;;1.17;0.83;;;;;;;;;;5073301;28;20491;-61
2023/09/23 06:14:25;;;;;;;1.20;1.10;;;;;;;;;;5073307;28;20454;-61
2023/09/23 06:16:52;;;;;;;1.33;1.23;;;;;;;;;;5073185;28;20444;-61
2023/09/23 06:19:19;;;;;;;1.07;0.90;;;;;;;;;;5073074;28;20534;-61
2023/09/23 06:21:46;;;;;;;0.90;0.90;;;;;;;;;;5073387;28;20886;-61
2023/09/23 06:24:13;;;;;;;1.20;1.10;;;;;;;;;;5073219;28;20609;-61
2023/09/23 06:26:40;;;;;;;1.90;0.93;;;;;;;;;;5073253;28;20447;-61
2023/09/23 06:29:07;;;;;;;1.50;1.00;;;;;;;;;;5073033;28;20535;-61
2023/09/23 06:31:35;;;;;;;1.27;1.17;;;;;;;;;;5072817;28;20578;-61
2023/09/23 06:34:02;;;;;;;1.70;0.97;;;;;;;;;;5073078;28;20451;-61
2023/09/23 06:36:29;;;;;;;2.27;1.20;;;;;;;;;;5072424;28;20443;-61
2023/09/23 06:38:56;;;;;;;0.90;0.80;;;;;;;;;;5072665;28;20475;-61
2023/09/23 06:41:22;;;;;;;1.93;1.10;;;;;;;;;;5072863;28;20981;-61
2023/09/23 06:43:49;;;;;;;1.20;0.97;;;;;;;;;;5072805;28;20538;-61
2023/09/23 06:46:16;;;;;;;1.00;0.90;;;;;;;;;;5072810;28;20501;-61
2023/09/23 06:48:44;;;;;;;1.77;1.20;;;;;;;;;;5072995;28;20947;-61
2023/09/23 06:51:11;;;;;;;2.43;1.10;;;;;;;;;;5072784;28;20579;-61
2023/09/23 06:53:40;;;;;;;4.33;0.90;;;;;;;;;;5072949;28;20440;-61
2023/09/23 06:56:07;;;;;;;1.53;0.93;;;;;;;;;;5072908;28;20448;-61
2023/09/23 06:58:34;;;;;;;1.20;0.90;;;;;;;;;;5072683;28;20506;-61
2023/09/23 07:01:01;;;;;;;1.10;0.80;;;;;;;;;;5072485;28;20930;-61
2023/09/23 07:03:28;;;;;;;1.10;0.90;;;;;;;;;;5072850;28;20449;-61
2023/09/23 07:05:56;;;;;;;2.80;1.10;;;;;;;;;;5072801;28;20454;-61
2023/09/23 07:08:23;;;;;;;0.80;0.70;;;;;;;;;;5072754;28;20806;-61
2023/09/23 07:10:50;;;;;;;0.90;0.80;;;;;;;;;;5072468;28;20538;-61
2023/09/23 07:13:17;;;;;;;1.00;0.80;;;;;;;;;;5072775;28;20443;-61
2023/09/23 07:15:44;;;;;;;1.03;0.90;;;;;;;;;;5072479;28;20450;-62
2023/09/23 07:18:13;;;;;;;1.63;1.00;;;;;;;;;;5072695;28;20539;-61
2023/09/23 07:20:40;;;;;;;1.83;0.90;;;;;;;;;;5072611;28;20444;-61
2023/09/23 07:23:08;;;;;;;2.03;0.83;;;;;;;;;;5072585;28;20538;-61
2023/09/23 07:25:38;;;;;;;2.33;0.80;;;;;;;;;;5072442;28;20449;-61
2023/09/23 07:28:07;;;;;;;0.80;0.80;;;;;;;;;;5072674;28;20444;-61
2023/09/23 07:30:34;;;;;;;1.30;1.17;;;;;;;;;;5072563;28;20494;-61
2023/09/23 07:33:01;;;;;;;2.40;0.80;;;;;;;;;;5072384;28;20532;-61
2023/09/23 07:35:30;;;;;;;1.10;1.00;;;;;;;;;;5072415;28;20449;-61
2023/09/23 07:37:59;;;;;;;1.13;0.90;;;;;;;;;;5072147;28;20474;-61
2023/09/23 07:40:27;;;;;;;2.47;1.00;;;;;;;;;;5072127;28;20447;-61
2023/09/23 07:42:54;;;;;;;3.17;1.00;;;;;;;;;;5072446;28;20483;-62
2023/09/23 07:45:21;;;;;;;2.20;1.37;;;;;;;;;;5072329;28;21117;-61
2023/09/23 07:47:48;;;;;;;1.90;0.90;;;;;;;;;;5073710;28;20513;-61
2023/09/23 07:50:16;;;;;;;1.37;0.80;;;;;;;;;;5075809;28;20865;-61
2023/09/23 07:52:43;;;;;;;3.90;1.00;;;;;;;;;;5075681;28;20479;-62
2023/09/23 07:55:11;;;;;;;1.00;0.80;;;;;;;;;;5075973;28;20505;-61
2023/09/23 07:57:39;;;;;;;2.80;1.00;;;;;;;;;;5075746;28;20447;-61
2023/09/23 08:00:08;;;;;;;1.20;0.90;;;;;;;;;;5075596;28;20998;-61
2023/09/23 08:02:35;;;;;;;1.23;0.87;;;;;;;;;;5075637;28;20493;-61
2023/09/23 08:05:03;;;;;;;1.00;0.90;;;;;;;;;;5075528;28;20447;-61
2023/09/23 08:07:30;;;;;;;1.10;0.80;;;;;;;;;;5075422;28;20474;-61
2023/09/23 08:09:57;;;;;;;0.90;0.80;;;;;;;;;;5075675;28;20811;-61
2023/09/23 08:12:24;;;;;;;1.30;0.70;;;;;;;;;;5075656;28;20977;-61
2023/09/23 08:14:53;;;;;;;5.40;0.80;;;;;;;;;;5075395;28;20542;-61
2023/09/23 08:17:20;;;;;;;2.17;0.80;;;;;;;;;;5075404;28;20475;-61
2023/09/23 08:19:47;;;;;;;1.43;0.93;;;;;;;;;;5075244;28;20448;-62
2023/09/23 08:22:14;;;;;;;1.57;0.80;;;;;;;;;;5075050;28;20857;-61
2023/09/23 08:24:42;;;;;;;2.87;0.83;;;;;;;;;;5075305;28;20534;-62
2023/09/23 08:27:09;;;;;;;1.00;0.80;;;;;;;;;;5075315;28;20447;-61
2023/09/23 08:29:36;;;;;;;2.20;1.10;;;;;;;;;;5074996;28;20935;-61
2023/09/23 08:32:05;;;;;;;3.83;1.33;;;;;;;;;;5074966;28;20477;-61
2023/09/23 08:34:32;;;;;;;1.13;1.03;;;;;;;;;;5074942;28;20444;-61
2023/09/23 08:37:00;;;;;;;2.17;0.90;;;;;;;;;;5074962;28;20475;-61
2023/09/23 08:39:27;;;;;;;2.60;1.10;;;;;;;;;;5075199;28;20444;-61
2023/09/23 08:41:54;;;;;;;1.13;1.03;;;;;;;;;;5074891;28;20530;-61
2023/09/23 08:44:22;;;;;;;3.00;0.80;;;;;;;;;;5074866;28;20474;-61
2023/09/23 08:46:50;;;;;;;1.00;0.90;;;;;;;;;;5074713;28;20455;-61
2023/09/23 08:49:21;;;;;;;1.63;1.17;;;;;;;;;;5074837;28;20439;-61
2023/09/23 08:51:48;;;;;;;1.93;0.80;;;;;;;;;;5074672;28;20490;-61
2023/09/23 08:54:15;;;;;;;0.77;0.73;;;;;;;;;;5074844;28;20474;-61
2023/09/23 08:56:42;;;;;;;0.90;0.80;;;;;;;;;;5074669;28;20814;-61
2023/09/23 08:59:11;;;;;;;1.00;0.90;;;;;;;;;;5074221;28;20988;-61
2023/09/23 09:01:45;;;;;;;1.00;0.90;;;;;;;;;;5074432;28;20435;-62
2023/09/23 09:04:13;;;;;;;1.20;0.80;;;;;;;;;;5074303;28;20530;-61
2023/09/23 09:06:48;;;;;;;1.30;1.03;;;;;;;;;;5074607;28;20448;-61
2023/09/23 09:09:15;;;;;;;1.37;0.73;;;;;;;;;;5074426;28;20518;-61
2023/09/23 09:11:42;;;;;;;0.90;0.80;;;;;;;;;;5074174;28;20471;-61
2023/09/23 09:14:10;;;;;;;1.17;0.80;;;;;;;;;;5074171;28;20472;-62
2023/09/23 09:16:38;;;;;;;0.90;0.90;;;;;;;;;;5074393;28;20853;-62
2023/09/23 09:19:05;;;;;;;1.50;0.87;;;;;;;;;;5074356;28;20505;-62
2023/09/23 09:21:32;;;;;;;1.13;1.03;;;;;;;;;;5074046;28;20447;-61
2023/09/23 09:24:00;;;;;;;1.00;0.90;;;;;;;;;;5073992;28;20444;-62
2023/09/23 09:26:27;;;;;;;0.83;0.80;;;;;;;;;;5073871;28;20451;-62
2023/09/23 09:28:54;;;;;;;1.40;0.97;;;;;;;;;;5073773;28;20443;-61
2023/09/23 09:31:21;;;;;;;1.27;0.90;;;;;;;;;;5073947;28;20443;-62
2023/09/23 09:33:50;;;;;;;1.83;1.00;;;;;;;;;;5073744;28;20930;-62
2023/09/23 09:36:18;;;;;;;1.00;0.90;;;;;;;;;;5073930;28;20451;-62
2023/09/23 09:38:45;;;;;;;1.13;0.83;;;;;;;;;;5073629;28;20471;-62
2023/09/23 09:41:16;;;;;;;0.80;0.80;;;;;;;;;;5073533;28;20523;-62
2023/09/23 09:43:45;;;;;;;1.67;0.90;;;;;;;;;;5073776;28;20451;-62
2023/09/23 09:46:13;;;;;;;0.90;0.90;;;;;;;;;;5073701;28;20451;-62
2023/09/23 09:48:41;;;;;;;1.10;0.90;;;;;;;;;;5073646;28;20534;-62
2023/09/23 09:51:13;;;;;;;0.80;0.80;;;;;;;;;;5073593;28;20471;-62
2023/09/23 09:53:40;;;;;;;0.97;0.87;;;;;;;;;;5073466;28;20485;-62
2023/09/23 09:56:08;;;;;;;1.10;0.90;;;;;;;;;;5073593;28;20824;-62
2023/09/23 09:58:39;;;;;;;1.10;0.87;;;;;;;;;;5073446;28;20444;-62
2023/09/23 10:01:12;;;;;;;1.20;1.10;;;;;;;;;;5073552;28;20448;-62
2023/09/23 10:03:39;;;;;;;0.80;0.80;;;;;;;;;;5073435;28;20500;-62
2023/09/23 10:06:08;;;;;;;1.50;1.00;;;;;;;;;;5073272;28;20795;-62
2023/09/23 10:08:38;;;;;;;2.03;0.80;;;;;;;;;;5073476;28;20455;-62
2023/09/23 10:11:08;;;;;;;0.80;0.80;;;;;;;;;;5072701;28;21054;-62
2023/09/23 10:13:35;;;;;;;1.00;0.77;;;;;;;;;;5073086;28;20489;-62
2023/09/23 10:16:11;;;;;;;0.80;0.80;;;;;;;;;;5073213;28;20530;-62
2023/09/23 10:18:40;;;;;;;0.90;0.77;;;;;;;;;;5072994;28;20451;-62
2023/09/23 10:21:07;;;;;;;1.00;0.90;;;;;;;;;;5073296;28;20792;-62
2023/09/23 10:23:35;;;;;;;1.13;0.87;;;;;;;;;;5073224;28;20444;-62
2023/09/23 10:26:13;;;;;;;1.67;0.80;;;;;;;;;;5073108;28;20455;-62
2023/09/23 10:28:40;;;;;;;0.70;0.70;;;;;;;;;;5072850;28;20450;-62
2023/09/23 10:31:10;;;;;;;0.80;0.80;;;;;;;;;;5072978;28;20443;-62
2023/09/23 10:33:38;;;;;;;0.90;0.90;;;;;;;;;;5073016;28;20525;-62
2023/09/23 10:36:06;;;;;;;0.90;0.87;;;;;;;;;;5072948;28;20534;-62
2023/09/23 10:38:37;;;;;;;1.00;0.90;;;;;;;;;;5072397;28;20847;-62
2023/09/23 10:41:05;;;;;;;1.10;1.00;;;;;;;;;;5072863;28;20440;-62
2023/09/23 10:43:34;;;;;;;3.63;0.97;;;;;;;;;;5072731;28;20451;-62
2023/09/23 10:46:02;;;;;;;1.20;1.10;;;;;;;;;;5072678;28;21005;-62
2023/09/23 10:48:31;;;;;;;2.50;0.90;;;;;;;;;;5072899;28;20443;-62
2023/09/23 10:50:58;;;;;;;0.80;0.80;;;;;;;;;;5072939;28;20788;-62
2023/09/23 10:53:27;;;;;;;2.27;0.93;;;;;;;;;;5072728;28;20483;-61
2023/09/23 10:55:55;;;;;;;1.43;1.20;;;;;;;;;;5072752;28;20443;-62
2023/09/23 10:58:22;;;;;;;1.40;1.30;;;;;;;;;;5072568;28;20443;-62
2023/09/23 11:00:51;;;;;;;1.23;1.13;;;;;;;;;;5072842;28;20539;-62
2023/09/23 11:03:19;;;;;;;1.50;1.40;;;;;;;;;;5072803;28;20448;-62
2023/09/23 11:05:48;;;;;;;2.33;1.50;;;;;;;;;;5072754;28;20526;-62
2023/09/23 11:08:16;;;;;;;1.33;1.23;;;;;;;;;;5072437;28;20501;-62
2023/09/23 11:10:43;;;;;;;1.70;1.60;;;;;;;;;;5072512;28;20444;-62
2023/09/23 11:13:11;;;;;;;1.60;1.50;;;;;;;;;;5072456;28;20483;-62
2023/09/23 11:15:38;;;;;;;1.63;1.53;;;;;;;;;;5072583;28;20484;-62
2023/09/23 11:18:08;;;;;;;1.73;1.60;;;;;;;;;;5072534;28;20463;-62
2023/09/23 11:20:35;;;;;;;3.53;1.20;;;;;;;;;;5072532;28;20444;-62
2023/09/23 11:23:05;;;;;;;1.67;1.40;;;;;;;;;;5076067;28;20443;-62
2023/09/23 11:25:32;;;;;;;1.50;1.40;;;;;;;;;;5076221;28;20493;-62
2023/09/23 11:28:00;;;;;;;1.50;1.40;;;;;;;;;;5076401;28;20443;-62
2023/09/23 11:30:27;;;;;;;1.20;1.10;;;;;;;;;;5076344;28;20807;-62
2023/09/23 11:32:56;;;;;;;1.50;1.40;;;;;;;;;;5076214;28;20593;-62
2023/09/23 11:35:23;;;;;;;1.37;1.27;;;;;;;;;;5076204;28;20446;-62
2023/09/23 11:37:50;;;;;;;1.20;1.10;;;;;;;;;;5075919;28;20471;-62
2023/09/23 11:40:18;;;;;;;1.87;1.13;;;;;;;;;;5076197;28;20447;-62
2023/09/23 11:42:45;;;;;;;1.13;1.03;;;;;;;;;;5076005;28;20470;-62
2023/09/23 11:45:13;;;;;;;1.93;1.20;;;;;;;;;;5075951;28;20891;-62
2023/09/23 11:47:40;;;;;;;1.10;1.00;;;;;;;;;;5075875;28;20451;-62
2023/09/23 11:50:08;;;;;;;1.30;1.10;;;;;;;;;;5075836;28;20452;-62
2023/09/23 11:52:35;;;;;;;1.20;1.00;;;;;;;;;;5075678;28;20528;-62
2023/09/23 11:55:03;;;;;;;0.83;0.80;;;;;;;;;;5075835;28;20887;-62
2023/09/23 11:57:31;;;;;;;1.10;1.00;;;;;;;;;;5075952;28;20473;-62
2023/09/23 11:59:58;;;;;;;1.20;0.80;;;;;;;;;;5075905;28;20513;-62
2023/09/23 12:02:25;;;;;;;1.10;1.00;;;;;;;;;;5075664;28;20435;-62
2023/09/23 12:04:52;;;;;;;2.30;1.27;;;;;;;;;;5075424;28;20486;-62
2023/09/23 12:07:19;;;;;;;0.90;0.80;;;;;;;;;;5075698;28;20439;-62
2023/09/23 12:09:46;;;;;;;0.80;0.80;;;;;;;;;;5075700;28;20443;-62
2023/09/23 12:12:13;;;;;;;1.10;1.00;;;;;;;;;;5075368;28;21007;-62
2023/09/23 12:14:42;;;;;;;1.00;0.90;;;;;;;;;;5075485;28;20543;-62
2023/09/23 12:17:10;;;;;;;1.10;0.80;;;;;;;;;;5075404;28;20518;-62
2023/09/23 12:19:37;;;;;;;1.20;0.90;;;;;;;;;;5075116;28;20447;-62
2023/09/23 12:22:04;;;;;;;1.47;1.13;;;;;;;;;;5075450;28;20534;-62
2023/09/23 12:24:31;;;;;;;1.03;0.93;;;;;;;;;;5075429;28;20458;-62
2023/09/23 12:26:58;;;;;;;1.20;1.10;;;;;;;;;;5075354;28;20531;-62
2023/09/23 12:29:25;;;;;;;2.13;0.70;;;;;;;;;;5075352;28;20877;-62
2023/09/23 12:31:54;;;;;;;1.10;1.00;;;;;;;;;;5075186;28;20439;-62
2023/09/23 12:34:21;;;;;;;0.73;0.73;;;;;;;;;;5074554;28;20479;-62
2023/09/23 12:36:49;;;;;;;2.20;0.80;;;;;;;;;;5074771;28;20550;-62
2023/09/23 12:39:16;;;;;;;3.47;0.87;;;;;;;;;;5074900;28;20983;-62
2023/09/23 12:41:43;;;;;;;1.20;0.80;;;;;;;;;;5075080;28;20482;-62
2023/09/23 12:44:10;;;;;;;1.97;1.10;;;;;;;;;;5074983;28;20541;-62
2023/09/23 12:46:37;;;;;;;1.20;1.00;;;;;;;;;;5074851;28;20446;-62
2023/09/23 12:49:06;;;;;;;1.20;1.10;;;;;;;;;;5074984;28;20530;-62
2023/09/23 12:51:32;;;;;;;1.10;1.00;;;;;;;;;;5074835;28;20492;-62
2023/09/23 12:53:59;;;;;;;0.80;0.80;;;;;;;;;;5074734;28;20487;-62
2023/09/23 12:56:25;;;;;;;1.10;0.90;;;;;;;;;;5074583;28;20517;-62
2023/09/23 12:58:53;;;;;;;2.30;0.90;;;;;;;;;;5074595;28;20822;-62
2023/09/23 13:01:21;;;;;;;1.20;1.00;;;;;;;;;;5074768;28;20505;-62
2023/09/23 13:03:47;;;;;;;1.10;1.00;;;;;;;;;;5074919;28;20475;-62
2023/09/23 13:06:16;;;;;;;1.10;1.00;;;;;;;;;;5074433;28;20443;-62
2023/09/23 13:08:44;;;;;;;1.07;0.97;;;;;;;;;;5074466;28;20486;-62
2023/09/23 13:11:10;;;;;;;1.20;1.00;;;;;;;;;;5074313;28;20448;-62
2023/09/23 13:13:37;;;;;;;0.87;0.87;;;;;;;;;;5074154;28;20479;-62
2023/09/23 13:16:04;;;;;;;1.00;0.90;;;;;;;;;;5074342;28;20535;-62
2023/09/23 13:18:31;;;;;;;0.80;0.80;;;;;;;;;;5074411;28;20474;-62
2023/09/23 13:20:58;;;;;;;1.27;0.90;;;;;;;;;;5074075;28;20450;-62
2023/09/23 13:23:27;;;;;;;1.57;1.00;;;;;;;;;;5074035;28;20542;-62
2023/09/23 13:25:54;;;;;;;1.00;0.90;;;;;;;;;;5074098;28;20534;-62
2023/09/23 13:28:21;;;;;;;1.20;1.10;;;;;;;;;;5073859;28;20444;-62
2023/09/23 13:30:48;;;;;;;0.90;0.90;;;;;;;;;;5074088;28;20792;-62
2023/09/23 13:33:16;;;;;;;0.90;0.83;;;;;;;;;;5073823;28;20478;-62
2023/09/23 13:35:43;;;;;;;1.20;0.80;;;;;;;;;;5073777;28;20454;-62
2023/09/23 13:38:10;;;;;;;1.07;0.97;;;;;;;;;;5073641;28;20519;-62
2023/09/23 13:40:38;;;;;;;0.97;0.93;;;;;;;;;;5073640;28;20986;-62
2023/09/23 13:43:05;;;;;;;1.43;1.00;;;;;;;;;;5073919;28;20530;-61
2023/09/23 13:45:32;;;;;;;1.20;1.10;;;;;;;;;;5072878;28;20487;-62
2023/09/23 13:47:59;;;;;;;1.30;1.17;;;;;;;;;;5073751;28;20875;-62
2023/09/23 13:50:26;;;;;;;1.30;1.00;;;;;;;;;;5073717;28;20443;-62
2023/09/23 13:52:53;;;;;;;1.00;1.00;;;;;;;;;;5073460;28;20837;-62
2023/09/23 13:55:20;;;;;;;1.03;0.90;;;;;;;;;;5073514;28;20847;-62
2023/09/23 13:57:49;;;;;;;1.97;1.10;;;;;;;;;;5073704;28;20820;-62
2023/09/23 14:00:16;;;;;;;1.33;0.80;;;;;;;;;;5073538;28;20443;-62
2023/09/23 14:02:43;;;;;;;2.40;0.90;;;;;;;;;;5073466;28;20454;-63
2023/09/23 14:05:10;;;;;;;0.80;0.80;;;;;;;;;;5073310;28;20454;-62
2023/09/23 14:07:37;;;;;;;1.10;0.97;;;;;;;;;;5073222;28;20447;-62
2023/09/23 14:10:05;;;;;;;1.50;1.00;;;;;;;;;;5073167;28;20538;-62
2023/09/23 14:12:32;;;;;;;1.07;0.97;;;;;;;;;;5073319;28;21076;-62
2023/09/23 14:15:01;;;;;;;1.43;1.33;;;;;;;;;;5073224;28;20518;-62
2023/09/23 14:17:28;;;;;;;1.20;1.10;;;;;;;;;;5073231;28;20439;-62
2023/09/23 14:19:55;;;;;;;1.17;1.03;;;;;;;;;;5073137;28;20516;-62
2023/09/23 14:22:22;;;;;;;1.53;1.17;;;;;;;;;;5073097;28;20930;-62
2023/09/23 14:24:49;;;;;;;1.60;1.40;;;;;;;;;;5073319;28;20454;-62
2023/09/23 14:27:16;;;;;;;1.10;0.90;;;;;;;;;;5073223;28;20475;-62
2023/09/23 14:29:44;;;;;;;1.73;1.10;;;;;;;;;;5073091;28;20439;-62
2023/09/23 14:32:12;;;;;;;1.20;1.10;;;;;;;;;;5073106;28;20439;-62
2023/09/23 14:34:39;;;;;;;1.20;1.10;;;;;;;;;;5073061;28;20482;-62
2023/09/23 14:37:06;;;;;;;2.17;1.33;;;;;;;;;;5072751;28;20471;-62
2023/09/23 14:39:33;;;;;;;1.63;1.00;;;;;;;;;;5073139;28;20599;-62
2023/09/23 14:42:00;;;;;;;1.30;1.20;;;;;;;;;;5073126;28;20798;-62
2023/09/23 14:44:27;;;;;;;0.93;0.87;;;;;;;;;;5073026;28;20450;-62
2023/09/23 14:46:54;;;;;;;1.30;1.10;;;;;;;;;;5073010;28;21011;-62